sensor_id;sensor_type;location;lat;lon;timestamp;P1;durP1;ratioP1;P2;durP2;ratioP2
26710;SDS011;18311;52.754;18.118;2022-08-19T00:00:49;12.78;;;10.40;;
26710;SDS011;18311;52.754;18.118;2022-08-19T00:03:20;11.90;;;10.13;;
26710;SDS011;18311;52.754;18.118;2022-08-19T00:05:52;10.40;;;9.18;;
26710;SDS011;18311;52.754;18.118;2022-08-19T00:08:23;10.78;;;9.68;;
26710;SDS011;18311;52.754;18.118;2022-08-19T00:10:54;11.30;;;9.88;;
26710;SDS011;18311;52.754;18.118;2022-08-19T00:13:25;10.63;;;9.43;;
26710;SDS011;18311;52.754;18.118;2022-08-19T00:15:58;10.63;;;9.65;;
26710;SDS011;18311;52.754;18.118;2022-08-19T00:18:31;11.25;;;9.73;;
26710;SDS011;18311;52.754;18.118;2022-08-19T00:21:03;11.03;;;9.93;;
26710;SDS011;18311;52.754;18.118;2022-08-19T00:23:36;11.95;;;10.13;;
26710;SDS011;18311;52.754;18.118;2022-08-19T00:26:07;11.50;;;9.75;;
26710;SDS011;18311;52.754;18.118;2022-08-19T00:28:39;10.75;;;9.65;;
26710;SDS011;18311;52.754;18.118;2022-08-19T00:31:10;11.00;;;9.90;;
26710;SDS011;18311;52.754;18.118;2022-08-19T00:33:41;10.63;;;9.55;;
26710;SDS011;18311;52.754;18.118;2022-08-19T00:36:12;10.38;;;9.33;;
26710;SDS011;18311;52.754;18.118;2022-08-19T00:38:45;10.80;;;9.75;;
26710;SDS011;18311;52.754;18.118;2022-08-19T00:41:16;10.53;;;9.53;;
26710;SDS011;18311;52.754;18.118;2022-08-19T00:46:42;12.00;;;10.50;;
26710;SDS011;18311;52.754;18.118;2022-08-19T00:49:20;10.95;;;9.85;;
26710;SDS011;18311;52.754;18.118;2022-08-19T00:52:03;10.75;;;9.75;;
26710;SDS011;18311;52.754;18.118;2022-08-19T00:54:38;10.98;;;9.88;;
26710;SDS011;18311;52.754;18.118;2022-08-19T00:57:12;11.00;;;9.68;;
26710;SDS011;18311;52.754;18.118;2022-08-19T00:59:46;12.55;;;9.93;;
26710;SDS011;18311;52.754;18.118;2022-08-19T01:02:22;11.50;;;9.78;;
26710;SDS011;18311;52.754;18.118;2022-08-19T01:04:53;11.10;;;10.00;;
26710;SDS011;18311;52.754;18.118;2022-08-19T01:07:24;10.72;;;9.63;;
26710;SDS011;18311;52.754;18.118;2022-08-19T01:09:57;10.48;;;9.43;;
26710;SDS011;18311;52.754;18.118;2022-08-19T01:12:29;11.05;;;9.78;;
26710;SDS011;18311;52.754;18.118;2022-08-19T01:15:01;12.15;;;9.93;;
26710;SDS011;18311;52.754;18.118;2022-08-19T01:17:33;11.12;;;10.13;;
26710;SDS011;18311;52.754;18.118;2022-08-19T01:20:07;11.45;;;10.35;;
26710;SDS011;18311;52.754;18.118;2022-08-19T01:22:48;11.78;;;10.40;;
26710;SDS011;18311;52.754;18.118;2022-08-19T01:25:22;10.85;;;9.73;;
26710;SDS011;18311;52.754;18.118;2022-08-19T01:27:58;11.12;;;10.03;;
26710;SDS011;18311;52.754;18.118;2022-08-19T01:30:32;11.22;;;9.85;;
26710;SDS011;18311;52.754;18.118;2022-08-19T01:33:04;11.65;;;10.45;;
26710;SDS011;18311;52.754;18.118;2022-08-19T01:35:37;11.50;;;10.45;;
26710;SDS011;18311;52.754;18.118;2022-08-19T01:38:09;11.43;;;9.85;;
26710;SDS011;18311;52.754;18.118;2022-08-19T01:40:42;13.58;;;10.72;;
26710;SDS011;18311;52.754;18.118;2022-08-19T01:43:14;11.08;;;10.00;;
26710;SDS011;18311;52.754;18.118;2022-08-19T01:45:45;11.63;;;10.43;;
26710;SDS011;18311;52.754;18.118;2022-08-19T01:48:17;13.70;;;10.60;;
26710;SDS011;18311;52.754;18.118;2022-08-19T01:50:48;11.63;;;10.35;;
26710;SDS011;18311;52.754;18.118;2022-08-19T01:53:19;12.37;;;10.82;;
26710;SDS011;18311;52.754;18.118;2022-08-19T01:55:52;12.73;;;10.58;;
26710;SDS011;18311;52.754;18.118;2022-08-19T01:58:24;11.25;;;10.10;;
26710;SDS011;18311;52.754;18.118;2022-08-19T02:03:28;11.28;;;10.18;;
26710;SDS011;18311;52.754;18.118;2022-08-19T02:06:00;11.08;;;10.03;;
26710;SDS011;18311;52.754;18.118;2022-08-19T02:08:36;11.93;;;10.65;;
26710;SDS011;18311;52.754;18.118;2022-08-19T02:11:07;11.20;;;10.10;;
26710;SDS011;18311;52.754;18.118;2022-08-19T02:13:38;12.13;;;10.50;;
26710;SDS011;18311;52.754;18.118;2022-08-19T02:16:09;10.98;;;9.88;;
26710;SDS011;18311;52.754;18.118;2022-08-19T02:18:40;11.00;;;10.10;;
26710;SDS011;18311;52.754;18.118;2022-08-19T02:21:11;10.98;;;9.98;;
26710;SDS011;18311;52.754;18.118;2022-08-19T02:23:45;12.58;;;10.58;;
26710;SDS011;18311;52.754;18.118;2022-08-19T02:26:16;13.22;;;10.00;;
26710;SDS011;18311;52.754;18.118;2022-08-19T02:28:48;11.60;;;10.40;;
26710;SDS011;18311;52.754;18.118;2022-08-19T02:31:20;11.22;;;9.98;;
26710;SDS011;18311;52.754;18.118;2022-08-19T02:33:53;11.63;;;10.32;;
26710;SDS011;18311;52.754;18.118;2022-08-19T02:36:26;12.28;;;10.75;;
26710;SDS011;18311;52.754;18.118;2022-08-19T02:38:57;11.68;;;10.58;;
26710;SDS011;18311;52.754;18.118;2022-08-19T02:41:30;10.23;;;9.30;;
26710;SDS011;18311;52.754;18.118;2022-08-19T02:44:03;11.53;;;10.32;;
26710;SDS011;18311;52.754;18.118;2022-08-19T02:46:38;11.35;;;10.18;;
26710;SDS011;18311;52.754;18.118;2022-08-19T02:49:08;10.80;;;9.85;;
26710;SDS011;18311;52.754;18.118;2022-08-19T02:51:41;11.12;;;10.00;;
26710;SDS011;18311;52.754;18.118;2022-08-19T02:54:14;11.28;;;10.20;;
26710;SDS011;18311;52.754;18.118;2022-08-19T02:56:45;10.98;;;9.93;;
26710;SDS011;18311;52.754;18.118;2022-08-19T02:59:16;11.63;;;10.55;;
26710;SDS011;18311;52.754;18.118;2022-08-19T03:01:49;11.33;;;10.23;;
26710;SDS011;18311;52.754;18.118;2022-08-19T03:04:20;10.72;;;9.73;;
26710;SDS011;18311;52.754;18.118;2022-08-19T03:06:52;11.12;;;9.85;;
26710;SDS011;18311;52.754;18.118;2022-08-19T03:09:25;11.18;;;10.03;;
26710;SDS011;18311;52.754;18.118;2022-08-19T03:11:56;10.82;;;9.83;;
26710;SDS011;18311;52.754;18.118;2022-08-19T03:14:29;11.12;;;9.90;;
26710;SDS011;18311;52.754;18.118;2022-08-19T03:17:03;11.65;;;10.43;;
26710;SDS011;18311;52.754;18.118;2022-08-19T03:19:34;11.00;;;9.90;;
26710;SDS011;18311;52.754;18.118;2022-08-19T03:22:07;11.00;;;9.55;;
26710;SDS011;18311;52.754;18.118;2022-08-19T03:24:38;10.93;;;9.90;;
26710;SDS011;18311;52.754;18.118;2022-08-19T03:27:09;11.97;;;10.00;;
26710;SDS011;18311;52.754;18.118;2022-08-19T03:29:41;11.15;;;10.05;;
26710;SDS011;18311;52.754;18.118;2022-08-19T03:32:14;10.93;;;9.83;;
26710;SDS011;18311;52.754;18.118;2022-08-19T03:34:47;10.60;;;9.58;;
26710;SDS011;18311;52.754;18.118;2022-08-19T03:37:19;10.98;;;9.70;;
26710;SDS011;18311;52.754;18.118;2022-08-19T03:39:51;11.05;;;9.93;;
26710;SDS011;18311;52.754;18.118;2022-08-19T03:42:22;11.10;;;9.85;;
26710;SDS011;18311;52.754;18.118;2022-08-19T03:44:56;11.75;;;10.15;;
26710;SDS011;18311;52.754;18.118;2022-08-19T03:47:27;10.23;;;9.23;;
26710;SDS011;18311;52.754;18.118;2022-08-19T03:49:59;12.18;;;10.85;;
26710;SDS011;18311;52.754;18.118;2022-08-19T03:52:31;10.93;;;9.85;;
26710;SDS011;18311;52.754;18.118;2022-08-19T03:55:05;10.98;;;9.93;;
26710;SDS011;18311;52.754;18.118;2022-08-19T03:57:36;11.03;;;9.93;;
26710;SDS011;18311;52.754;18.118;2022-08-19T04:00:07;11.60;;;10.28;;
26710;SDS011;18311;52.754;18.118;2022-08-19T04:02:41;12.80;;;10.83;;
26710;SDS011;18311;52.754;18.118;2022-08-19T04:05:14;11.43;;;10.28;;
26710;SDS011;18311;52.754;18.118;2022-08-19T04:07:45;11.60;;;9.78;;
26710;SDS011;18311;52.754;18.118;2022-08-19T04:10:17;11.35;;;10.23;;
26710;SDS011;18311;52.754;18.118;2022-08-19T04:12:48;11.35;;;10.28;;
26710;SDS011;18311;52.754;18.118;2022-08-19T04:15:19;11.25;;;9.98;;
26710;SDS011;18311;52.754;18.118;2022-08-19T04:17:50;12.63;;;10.35;;
26710;SDS011;18311;52.754;18.118;2022-08-19T04:20:22;11.40;;;10.30;;
26710;SDS011;18311;52.754;18.118;2022-08-19T04:22:52;11.30;;;10.15;;
26710;SDS011;18311;52.754;18.118;2022-08-19T04:25:24;11.65;;;9.95;;
26710;SDS011;18311;52.754;18.118;2022-08-19T04:27:54;11.43;;;10.30;;
26710;SDS011;18311;52.754;18.118;2022-08-19T04:30:25;10.88;;;9.88;;
26710;SDS011;18311;52.754;18.118;2022-08-19T04:32:57;11.03;;;9.95;;
26710;SDS011;18311;52.754;18.118;2022-08-19T04:35:28;10.48;;;9.55;;
26710;SDS011;18311;52.754;18.118;2022-08-19T04:38:00;11.30;;;9.98;;
26710;SDS011;18311;52.754;18.118;2022-08-19T04:40:31;12.40;;;10.40;;
26710;SDS011;18311;52.754;18.118;2022-08-19T04:43:21;12.07;;;10.88;;
26710;SDS011;18311;52.754;18.118;2022-08-19T04:45:52;11.15;;;10.15;;
26710;SDS011;18311;52.754;18.118;2022-08-19T04:48:25;12.30;;;10.45;;
26710;SDS011;18311;52.754;18.118;2022-08-19T04:50:57;15.72;;;10.00;;
26710;SDS011;18311;52.754;18.118;2022-08-19T04:53:29;10.88;;;9.68;;
26710;SDS011;18311;52.754;18.118;2022-08-19T04:56:12;10.80;;;9.80;;
26710;SDS011;18311;52.754;18.118;2022-08-19T04:58:41;11.10;;;10.10;;
26710;SDS011;18311;52.754;18.118;2022-08-19T05:01:14;10.93;;;9.78;;
26710;SDS011;18311;52.754;18.118;2022-08-19T05:03:47;11.25;;;10.15;;
26710;SDS011;18311;52.754;18.118;2022-08-19T05:06:19;11.15;;;10.00;;
26710;SDS011;18311;52.754;18.118;2022-08-19T05:08:53;10.70;;;9.70;;
26710;SDS011;18311;52.754;18.118;2022-08-19T05:11:32;11.03;;;10.03;;
26710;SDS011;18311;52.754;18.118;2022-08-19T05:14:00;10.98;;;9.80;;
26710;SDS011;18311;52.754;18.118;2022-08-19T05:16:31;11.88;;;9.90;;
26710;SDS011;18311;52.754;18.118;2022-08-19T05:19:03;11.18;;;9.93;;
26710;SDS011;18311;52.754;18.118;2022-08-19T05:21:54;10.90;;;9.25;;
26710;SDS011;18311;52.754;18.118;2022-08-19T05:24:42;11.12;;;9.95;;
26710;SDS011;18311;52.754;18.118;2022-08-19T05:27:15;11.18;;;9.63;;
26710;SDS011;18311;52.754;18.118;2022-08-19T05:29:48;11.68;;;9.65;;
26710;SDS011;18311;52.754;18.118;2022-08-19T05:32:18;10.13;;;9.08;;
26710;SDS011;18311;52.754;18.118;2022-08-19T05:34:50;10.35;;;8.95;;
26710;SDS011;18311;52.754;18.118;2022-08-19T05:37:21;11.70;;;9.60;;
26710;SDS011;18311;52.754;18.118;2022-08-19T05:39:54;10.68;;;9.58;;
26710;SDS011;18311;52.754;18.118;2022-08-19T05:42:26;9.98;;;9.08;;
26710;SDS011;18311;52.754;18.118;2022-08-19T05:44:56;10.50;;;9.40;;
26710;SDS011;18311;52.754;18.118;2022-08-19T05:47:28;10.70;;;9.33;;
26710;SDS011;18311;52.754;18.118;2022-08-19T05:49:59;9.90;;;8.98;;
26710;SDS011;18311;52.754;18.118;2022-08-19T05:52:32;10.78;;;9.68;;
26710;SDS011;18311;52.754;18.118;2022-08-19T05:55:05;11.00;;;9.65;;
26710;SDS011;18311;52.754;18.118;2022-08-19T05:57:37;10.95;;;9.00;;
26710;SDS011;18311;52.754;18.118;2022-08-19T06:00:10;12.13;;;9.30;;
26710;SDS011;18311;52.754;18.118;2022-08-19T06:02:41;11.93;;;9.40;;
26710;SDS011;18311;52.754;18.118;2022-08-19T06:05:12;10.50;;;8.98;;
26710;SDS011;18311;52.754;18.118;2022-08-19T06:07:43;11.95;;;9.08;;
26710;SDS011;18311;52.754;18.118;2022-08-19T06:10:15;10.05;;;9.05;;
26710;SDS011;18311;52.754;18.118;2022-08-19T06:12:46;10.28;;;9.35;;
26710;SDS011;18311;52.754;18.118;2022-08-19T06:15:17;13.05;;;9.45;;
26710;SDS011;18311;52.754;18.118;2022-08-19T06:17:48;10.03;;;8.88;;
26710;SDS011;18311;52.754;18.118;2022-08-19T06:20:19;12.03;;;9.35;;
26710;SDS011;18311;52.754;18.118;2022-08-19T06:22:52;11.10;;;9.10;;
26710;SDS011;18311;52.754;18.118;2022-08-19T06:25:23;9.55;;;8.55;;
26710;SDS011;18311;52.754;18.118;2022-08-19T06:27:56;10.55;;;9.55;;
26710;SDS011;18311;52.754;18.118;2022-08-19T06:30:29;9.93;;;8.83;;
26710;SDS011;18311;52.754;18.118;2022-08-19T06:33:04;9.93;;;8.45;;
26710;SDS011;18311;52.754;18.118;2022-08-19T06:35:40;9.43;;;8.53;;
26710;SDS011;18311;52.754;18.118;2022-08-19T06:38:12;12.40;;;8.93;;
26710;SDS011;18311;52.754;18.118;2022-08-19T06:40:46;9.63;;;8.58;;
26710;SDS011;18311;52.754;18.118;2022-08-19T06:43:17;10.30;;;8.90;;
26710;SDS011;18311;52.754;18.118;2022-08-19T06:45:50;9.48;;;8.48;;
26710;SDS011;18311;52.754;18.118;2022-08-19T06:48:21;9.78;;;8.60;;
26710;SDS011;18311;52.754;18.118;2022-08-19T06:50:53;9.73;;;8.70;;
26710;SDS011;18311;52.754;18.118;2022-08-19T06:53:24;10.18;;;8.68;;
26710;SDS011;18311;52.754;18.118;2022-08-19T06:55:57;10.88;;;8.85;;
26710;SDS011;18311;52.754;18.118;2022-08-19T06:58:29;9.90;;;8.98;;
26710;SDS011;18311;52.754;18.118;2022-08-19T07:01:04;9.90;;;8.33;;
26710;SDS011;18311;52.754;18.118;2022-08-19T07:03:37;9.65;;;8.68;;
26710;SDS011;18311;52.754;18.118;2022-08-19T07:06:10;10.08;;;9.08;;
26710;SDS011;18311;52.754;18.118;2022-08-19T07:08:45;10.68;;;9.03;;
26710;SDS011;18311;52.754;18.118;2022-08-19T07:11:17;10.18;;;8.93;;
26710;SDS011;18311;52.754;18.118;2022-08-19T07:13:51;12.35;;;9.50;;
26710;SDS011;18311;52.754;18.118;2022-08-19T07:16:24;10.00;;;8.80;;
26710;SDS011;18311;52.754;18.118;2022-08-19T07:18:57;11.05;;;9.30;;
26710;SDS011;18311;52.754;18.118;2022-08-19T07:21:30;11.75;;;8.88;;
26710;SDS011;18311;52.754;18.118;2022-08-19T07:24:03;11.10;;;8.90;;
26710;SDS011;18311;52.754;18.118;2022-08-19T07:26:37;10.58;;;8.95;;
26710;SDS011;18311;52.754;18.118;2022-08-19T07:29:12;9.45;;;8.48;;
26710;SDS011;18311;52.754;18.118;2022-08-19T07:31:43;10.20;;;9.28;;
26710;SDS011;18311;52.754;18.118;2022-08-19T07:34:17;11.43;;;10.13;;
26710;SDS011;18311;52.754;18.118;2022-08-19T07:36:49;11.38;;;8.90;;
26710;SDS011;18311;52.754;18.118;2022-08-19T07:39:23;10.03;;;9.03;;
26710;SDS011;18311;52.754;18.118;2022-08-19T07:41:56;12.98;;;9.20;;
26710;SDS011;18311;52.754;18.118;2022-08-19T07:44:29;10.25;;;8.60;;
26710;SDS011;18311;52.754;18.118;2022-08-19T07:47:00;10.43;;;8.60;;
26710;SDS011;18311;52.754;18.118;2022-08-19T07:49:33;11.05;;;8.98;;
26710;SDS011;18311;52.754;18.118;2022-08-19T07:52:06;9.65;;;8.68;;
26710;SDS011;18311;52.754;18.118;2022-08-19T07:54:38;10.10;;;9.10;;
26710;SDS011;18311;52.754;18.118;2022-08-19T07:57:10;10.90;;;8.43;;
26710;SDS011;18311;52.754;18.118;2022-08-19T07:59:41;10.93;;;8.58;;
26710;SDS011;18311;52.754;18.118;2022-08-19T08:02:12;12.33;;;9.00;;
26710;SDS011;18311;52.754;18.118;2022-08-19T08:04:43;10.85;;;9.63;;
26710;SDS011;18311;52.754;18.118;2022-08-19T08:07:34;10.32;;;9.05;;
26710;SDS011;18311;52.754;18.118;2022-08-19T08:10:23;11.40;;;8.95;;
26710;SDS011;18311;52.754;18.118;2022-08-19T08:12:54;10.18;;;9.15;;
26710;SDS011;18311;52.754;18.118;2022-08-19T08:15:27;9.75;;;8.73;;
26710;SDS011;18311;52.754;18.118;2022-08-19T08:17:58;9.65;;;8.65;;
26710;SDS011;18311;52.754;18.118;2022-08-19T08:20:29;11.40;;;9.40;;
26710;SDS011;18311;52.754;18.118;2022-08-19T08:23:01;10.10;;;8.95;;
26710;SDS011;18311;52.754;18.118;2022-08-19T08:25:54;10.30;;;9.20;;
26710;SDS011;18311;52.754;18.118;2022-08-19T08:28:27;13.70;;;9.18;;
26710;SDS011;18311;52.754;18.118;2022-08-19T08:30:59;10.43;;;9.30;;
26710;SDS011;18311;52.754;18.118;2022-08-19T08:33:32;10.60;;;9.00;;
26710;SDS011;18311;52.754;18.118;2022-08-19T08:36:05;13.30;;;9.10;;
26710;SDS011;18311;52.754;18.118;2022-08-19T08:38:36;10.93;;;9.23;;
26710;SDS011;18311;52.754;18.118;2022-08-19T08:44:11;11.60;;;9.35;;
26710;SDS011;18311;52.754;18.118;2022-08-19T08:46:58;11.40;;;9.30;;
26710;SDS011;18311;52.754;18.118;2022-08-19T08:52:40;12.18;;;9.18;;
26710;SDS011;18311;52.754;18.118;2022-08-19T08:55:15;10.60;;;9.50;;
26710;SDS011;18311;52.754;18.118;2022-08-19T09:00:31;10.45;;;9.25;;
26710;SDS011;18311;52.754;18.118;2022-08-19T09:03:09;12.28;;;9.33;;
26710;SDS011;18311;52.754;18.118;2022-08-19T09:11:56;10.85;;;9.85;;
26710;SDS011;18311;52.754;18.118;2022-08-19T09:13:56;10.00;;;9.10;;
26710;SDS011;18311;52.754;18.118;2022-08-19T09:16:32;10.23;;;9.33;;
26710;SDS011;18311;52.754;18.118;2022-08-19T09:21:37;13.15;;;9.68;;
26710;SDS011;18311;52.754;18.118;2022-08-19T09:24:08;10.48;;;9.18;;
26710;SDS011;18311;52.754;18.118;2022-08-19T09:26:40;11.25;;;10.10;;
26710;SDS011;18311;52.754;18.118;2022-08-19T09:29:14;12.83;;;9.27;;
26710;SDS011;18311;52.754;18.118;2022-08-19T09:31:46;12.47;;;9.68;;
26710;SDS011;18311;52.754;18.118;2022-08-19T09:34:17;10.45;;;9.38;;
26710;SDS011;18311;52.754;18.118;2022-08-19T09:36:49;11.38;;;8.88;;
26710;SDS011;18311;52.754;18.118;2022-08-19T09:39:22;13.00;;;9.05;;
26710;SDS011;18311;52.754;18.118;2022-08-19T09:41:55;10.25;;;9.10;;
26710;SDS011;18311;52.754;18.118;2022-08-19T09:44:26;9.75;;;8.60;;
26710;SDS011;18311;52.754;18.118;2022-08-19T09:46:57;10.10;;;8.98;;
26710;SDS011;18311;52.754;18.118;2022-08-19T09:49:29;9.98;;;9.03;;
26710;SDS011;18311;52.754;18.118;2022-08-19T09:52:01;9.28;;;8.33;;
26710;SDS011;18311;52.754;18.118;2022-08-19T09:54:32;9.85;;;8.88;;
26710;SDS011;18311;52.754;18.118;2022-08-19T09:57:04;12.80;;;8.85;;
26710;SDS011;18311;52.754;18.118;2022-08-19T09:59:36;10.43;;;8.60;;
26710;SDS011;18311;52.754;18.118;2022-08-19T10:02:08;9.85;;;8.70;;
26710;SDS011;18311;52.754;18.118;2022-08-19T10:04:42;9.63;;;8.63;;
26710;SDS011;18311;52.754;18.118;2022-08-19T10:07:33;11.10;;;8.60;;
26710;SDS011;18311;52.754;18.118;2022-08-19T10:10:05;11.03;;;8.65;;
26710;SDS011;18311;52.754;18.118;2022-08-19T10:12:39;10.67;;;8.90;;
26710;SDS011;18311;52.754;18.118;2022-08-19T10:15:16;9.53;;;8.53;;
26710;SDS011;18311;52.754;18.118;2022-08-19T10:17:51;9.18;;;8.38;;
26710;SDS011;18311;52.754;18.118;2022-08-19T10:20:25;9.50;;;8.50;;
26710;SDS011;18311;52.754;18.118;2022-08-19T10:22:56;8.85;;;7.95;;
26710;SDS011;18311;52.754;18.118;2022-08-19T10:25:29;9.88;;;7.85;;
26710;SDS011;18311;52.754;18.118;2022-08-19T10:28:04;10.05;;;8.38;;
26710;SDS011;18311;52.754;18.118;2022-08-19T10:30:38;12.05;;;8.83;;
26710;SDS011;18311;52.754;18.118;2022-08-19T10:33:11;11.57;;;8.03;;
26710;SDS011;18311;52.754;18.118;2022-08-19T10:35:44;8.95;;;8.05;;
26710;SDS011;18311;52.754;18.118;2022-08-19T10:38:17;9.40;;;7.72;;
26710;SDS011;18311;52.754;18.118;2022-08-19T10:40:50;9.00;;;8.15;;
26710;SDS011;18311;52.754;18.118;2022-08-19T10:43:23;8.68;;;7.78;;
26710;SDS011;18311;52.754;18.118;2022-08-19T10:45:54;8.93;;;8.00;;
26710;SDS011;18311;52.754;18.118;2022-08-19T10:48:27;9.15;;;8.23;;
26710;SDS011;18311;52.754;18.118;2022-08-19T10:50:58;10.38;;;7.80;;
26710;SDS011;18311;52.754;18.118;2022-08-19T10:53:49;9.95;;;7.80;;
26710;SDS011;18311;52.754;18.118;2022-08-19T10:56:21;10.65;;;7.78;;
26710;SDS011;18311;52.754;18.118;2022-08-19T10:59:10;10.68;;;8.03;;
26710;SDS011;18311;52.754;18.118;2022-08-19T11:01:43;9.18;;;8.08;;
26710;SDS011;18311;52.754;18.118;2022-08-19T11:04:19;10.17;;;7.27;;
26710;SDS011;18311;52.754;18.118;2022-08-19T11:06:53;8.95;;;7.72;;
26710;SDS011;18311;52.754;18.118;2022-08-19T11:09:26;9.28;;;7.87;;
26710;SDS011;18311;52.754;18.118;2022-08-19T11:14:33;12.13;;;7.62;;
26710;SDS011;18311;52.754;18.118;2022-08-19T11:17:05;10.28;;;8.10;;
26710;SDS011;18311;52.754;18.118;2022-08-19T11:19:36;10.05;;;6.90;;
26710;SDS011;18311;52.754;18.118;2022-08-19T11:22:08;8.53;;;6.50;;
26710;SDS011;18311;52.754;18.118;2022-08-19T11:24:41;10.98;;;7.58;;
26710;SDS011;18311;52.754;18.118;2022-08-19T11:27:12;8.75;;;7.17;;
26710;SDS011;18311;52.754;18.118;2022-08-19T11:29:43;9.50;;;7.12;;
26710;SDS011;18311;52.754;18.118;2022-08-19T11:32:14;10.10;;;6.97;;
26710;SDS011;18311;52.754;18.118;2022-08-19T11:34:46;10.08;;;7.47;;
26710;SDS011;18311;52.754;18.118;2022-08-19T11:37:17;9.45;;;7.15;;
26710;SDS011;18311;52.754;18.118;2022-08-19T11:39:48;7.95;;;6.90;;
26710;SDS011;18311;52.754;18.118;2022-08-19T11:42:21;7.33;;;6.50;;
26710;SDS011;18311;52.754;18.118;2022-08-19T11:45:10;10.00;;;7.12;;
26710;SDS011;18311;52.754;18.118;2022-08-19T11:47:43;13.68;;;7.45;;
26710;SDS011;18311;52.754;18.118;2022-08-19T11:50:16;11.22;;;7.37;;
26710;SDS011;18311;52.754;18.118;2022-08-19T11:52:47;10.20;;;7.42;;
26710;SDS011;18311;52.754;18.118;2022-08-19T11:55:18;8.03;;;7.33;;
26710;SDS011;18311;52.754;18.118;2022-08-19T11:57:50;9.50;;;7.37;;
26710;SDS011;18311;52.754;18.118;2022-08-19T12:00:21;7.50;;;6.80;;
26710;SDS011;18311;52.754;18.118;2022-08-19T12:02:52;8.15;;;7.28;;
26710;SDS011;18311;52.754;18.118;2022-08-19T12:05:24;9.13;;;6.95;;
26710;SDS011;18311;52.754;18.118;2022-08-19T12:07:55;9.18;;;7.03;;
26710;SDS011;18311;52.754;18.118;2022-08-19T12:10:27;8.10;;;6.80;;
26710;SDS011;18311;52.754;18.118;2022-08-19T12:12:59;10.75;;;6.87;;
26710;SDS011;18311;52.754;18.118;2022-08-19T12:15:30;9.63;;;7.35;;
26710;SDS011;18311;52.754;18.118;2022-08-19T12:18:10;9.03;;;6.72;;
26710;SDS011;18311;52.754;18.118;2022-08-19T12:20:44;8.50;;;7.17;;
26710;SDS011;18311;52.754;18.118;2022-08-19T12:23:16;9.33;;;6.87;;
26710;SDS011;18311;52.754;18.118;2022-08-19T12:25:48;9.58;;;7.22;;
26710;SDS011;18311;52.754;18.118;2022-08-19T12:28:21;8.45;;;6.60;;
26710;SDS011;18311;52.754;18.118;2022-08-19T12:30:55;7.70;;;6.22;;
26710;SDS011;18311;52.754;18.118;2022-08-19T12:33:27;7.58;;;6.72;;
26710;SDS011;18311;52.754;18.118;2022-08-19T12:36:02;6.83;;;6.00;;
26710;SDS011;18311;52.754;18.118;2022-08-19T12:38:35;11.43;;;6.50;;
26710;SDS011;18311;52.754;18.118;2022-08-19T12:41:06;9.70;;;6.33;;
26710;SDS011;18311;52.754;18.118;2022-08-19T12:43:41;9.65;;;6.90;;
26710;SDS011;18311;52.754;18.118;2022-08-19T12:46:14;8.55;;;6.80;;
26710;SDS011;18311;52.754;18.118;2022-08-19T12:48:46;8.88;;;6.83;;
26710;SDS011;18311;52.754;18.118;2022-08-19T12:51:19;10.63;;;6.37;;
26710;SDS011;18311;52.754;18.118;2022-08-19T12:53:50;10.25;;;6.70;;
26710;SDS011;18311;52.754;18.118;2022-08-19T12:56:21;8.13;;;6.40;;
26710;SDS011;18311;52.754;18.118;2022-08-19T12:58:52;7.72;;;6.45;;
26710;SDS011;18311;52.754;18.118;2022-08-19T13:01:24;11.40;;;7.15;;
26710;SDS011;18311;52.754;18.118;2022-08-19T13:03:56;7.40;;;6.03;;
26710;SDS011;18311;52.754;18.118;2022-08-19T13:06:28;8.48;;;6.78;;
26710;SDS011;18311;52.754;18.118;2022-08-19T13:08:59;9.80;;;6.45;;
26710;SDS011;18311;52.754;18.118;2022-08-19T13:11:30;9.88;;;6.08;;
26710;SDS011;18311;52.754;18.118;2022-08-19T13:14:02;8.58;;;6.37;;
26710;SDS011;18311;52.754;18.118;2022-08-19T13:16:35;6.83;;;6.08;;
26710;SDS011;18311;52.754;18.118;2022-08-19T13:19:07;8.53;;;5.92;;
26710;SDS011;18311;52.754;18.118;2022-08-19T13:21:38;6.92;;;5.90;;
26710;SDS011;18311;52.754;18.118;2022-08-19T13:24:09;6.65;;;5.72;;
26710;SDS011;18311;52.754;18.118;2022-08-19T13:26:41;7.53;;;6.10;;
26710;SDS011;18311;52.754;18.118;2022-08-19T13:29:12;11.80;;;6.35;;
26710;SDS011;18311;52.754;18.118;2022-08-19T13:32:02;7.40;;;6.05;;
26710;SDS011;18311;52.754;18.118;2022-08-19T13:34:51;6.70;;;6.03;;
26710;SDS011;18311;52.754;18.118;2022-08-19T13:37:22;7.58;;;5.37;;
26710;SDS011;18311;52.754;18.118;2022-08-19T13:40:15;7.92;;;5.80;;
26710;SDS011;18311;52.754;18.118;2022-08-19T13:42:53;6.55;;;5.10;;
26710;SDS011;18311;52.754;18.118;2022-08-19T13:45:26;7.05;;;5.28;;
26710;SDS011;18311;52.754;18.118;2022-08-19T13:48:01;7.33;;;5.40;;
26710;SDS011;18311;52.754;18.118;2022-08-19T13:50:40;8.18;;;5.65;;
26710;SDS011;18311;52.754;18.118;2022-08-19T13:53:12;8.00;;;4.97;;
26710;SDS011;18311;52.754;18.118;2022-08-19T13:55:43;5.95;;;4.80;;
26710;SDS011;18311;52.754;18.118;2022-08-19T13:58:15;8.65;;;5.00;;
26710;SDS011;18311;52.754;18.118;2022-08-19T14:00:46;8.55;;;4.83;;
26710;SDS011;18311;52.754;18.118;2022-08-19T14:03:18;7.70;;;4.62;;
26710;SDS011;18311;52.754;18.118;2022-08-19T14:05:49;7.15;;;5.12;;
26710;SDS011;18311;52.754;18.118;2022-08-19T14:08:20;5.12;;;4.67;;
26710;SDS011;18311;52.754;18.118;2022-08-19T14:10:52;6.50;;;4.85;;
26710;SDS011;18311;52.754;18.118;2022-08-19T14:13:23;7.08;;;4.50;;
26710;SDS011;18311;52.754;18.118;2022-08-19T14:15:55;7.53;;;4.62;;
26710;SDS011;18311;52.754;18.118;2022-08-19T14:18:27;7.40;;;4.90;;
26710;SDS011;18311;52.754;18.118;2022-08-19T14:20:59;5.92;;;4.80;;
26710;SDS011;18311;52.754;18.118;2022-08-19T14:23:30;7.37;;;4.90;;
26710;SDS011;18311;52.754;18.118;2022-08-19T14:26:11;8.55;;;4.87;;
26710;SDS011;18311;52.754;18.118;2022-08-19T14:28:39;7.45;;;5.10;;
26710;SDS011;18311;52.754;18.118;2022-08-19T14:31:11;9.65;;;5.10;;
26710;SDS011;18311;52.754;18.118;2022-08-19T14:33:46;6.28;;;4.60;;
26710;SDS011;18311;52.754;18.118;2022-08-19T14:36:19;7.33;;;4.40;;
26710;SDS011;18311;52.754;18.118;2022-08-19T14:38:50;7.08;;;4.55;;
26710;SDS011;18311;52.754;18.118;2022-08-19T14:41:22;5.85;;;4.37;;
26710;SDS011;18311;52.754;18.118;2022-08-19T14:50:08;8.30;;;5.15;;
26710;SDS011;18311;52.754;18.118;2022-08-19T14:53:04;6.20;;;4.80;;
26710;SDS011;18311;52.754;18.118;2022-08-19T14:55:40;8.58;;;4.58;;
26710;SDS011;18311;52.754;18.118;2022-08-19T14:58:17;7.25;;;4.65;;
26710;SDS011;18311;52.754;18.118;2022-08-19T15:00:57;7.83;;;4.33;;
26710;SDS011;18311;52.754;18.118;2022-08-19T15:03:34;8.58;;;5.40;;
26710;SDS011;18311;52.754;18.118;2022-08-19T15:06:05;7.10;;;4.72;;
26710;SDS011;18311;52.754;18.118;2022-08-19T15:08:41;5.55;;;4.28;;
26710;SDS011;18311;52.754;18.118;2022-08-19T15:11:14;5.87;;;3.90;;
26710;SDS011;18311;52.754;18.118;2022-08-19T15:13:52;7.12;;;4.53;;
26710;SDS011;18311;52.754;18.118;2022-08-19T15:16:25;8.70;;;4.37;;
26710;SDS011;18311;52.754;18.118;2022-08-19T15:19:03;8.40;;;4.37;;
26710;SDS011;18311;52.754;18.118;2022-08-19T15:21:35;7.20;;;4.28;;
26710;SDS011;18311;52.754;18.118;2022-08-19T15:24:06;8.88;;;4.37;;
26710;SDS011;18311;52.754;18.118;2022-08-19T15:26:40;6.15;;;4.40;;
26710;SDS011;18311;52.754;18.118;2022-08-19T15:29:11;6.97;;;4.22;;